Weather in selectable METAR weather stations

1) Select the Continent / Group:

[Europe]  [Asia]  [Africa]  [North America]  [South America]  
[Central America and Caribbean]  [Oceania]  [Antarctica]  
2) Select the Weather station (City):


METAR = YBAS 181730Z AUTO 00000KT 9999 // NCD 18/M08 Q1014 RF00.0/000.0

STATIONYBAS
NAMEAlice Springs Arpt, NT, AU
OBSERVED19.11.2019 03:00 (18.11.2019 17:30 UTC), 20 min ago
TEMPERATURE18.0°C ( 64°F)
WINDcalm
HUMIDITY16%
PRESSURE1013.9 hPa
Click here to search the weather station or to give the station identifier
(four-character ICAO Location Indicator) for weather data.